createdAt,value
2023-03-24T00:01:57.128Z,12.85
2023-03-24T00:04:29.649Z,12.88
2023-03-24T00:06:57.884Z,12.88
2023-03-24T00:09:29.324Z,12.94
2023-03-24T00:11:57.352Z,12.92
2023-03-24T00:14:25.646Z,12.96
2023-03-24T00:16:54.698Z,12.92
2023-03-24T00:19:22.562Z,12.86
2023-03-24T00:21:55.969Z,12.88
2023-03-24T00:24:23.714Z,12.90
2023-03-24T00:26:51.794Z,12.87
2023-03-24T00:29:22.396Z,13.04
2023-03-24T00:31:51.465Z,12.96
2023-03-24T00:34:21.604Z,12.84
2023-03-24T00:36:52.621Z,13.01
2023-03-24T00:39:20.847Z,12.98
2023-03-24T00:41:49.519Z,12.94
2023-03-24T00:44:18.818Z,13.01
2023-03-24T00:46:55.273Z,12.93
2023-03-24T00:49:41.930Z,13.02
2023-03-24T00:52:12.321Z,13.07
2023-03-24T00:54:41.908Z,13.03
2023-03-24T00:57:14.992Z,13.14
2023-03-24T00:59:48.976Z,12.96
2023-03-24T01:02:22.775Z,13.09
2023-03-24T01:04:54.665Z,13.00
2023-03-24T01:07:25.009Z,12.81
2023-03-24T01:09:57.545Z,12.75
2023-03-24T01:12:25.332Z,12.72
2023-03-24T01:14:56.428Z,12.75
2023-03-24T01:17:25.484Z,12.66
2023-03-24T01:19:53.121Z,12.61
2023-03-24T01:22:27.891Z,12.51
2023-03-24T01:25:00.719Z,12.57
2023-03-24T01:27:28.502Z,12.58
2023-03-24T01:30:00.268Z,12.59
2023-03-24T01:32:28.141Z,12.53
2023-03-24T01:34:58.146Z,12.48
2023-03-24T01:37:27.152Z,12.48
2023-03-24T01:39:54.891Z,12.51
2023-03-24T01:42:26.304Z,12.56
2023-03-24T01:44:58.806Z,12.48
2023-03-24T01:47:26.702Z,12.48
2023-03-24T01:49:58.020Z,12.56
2023-03-24T01:52:30.605Z,12.56
2023-03-24T01:55:01.454Z,12.56
2023-03-24T01:57:32.272Z,12.53
2023-03-24T02:00:04.920Z,12.48
2023-03-24T02:02:34.898Z,12.45
2023-03-24T02:05:07.277Z,12.50
2023-03-24T02:07:42.672Z,12.48
2023-03-24T02:10:13.454Z,12.44
2023-03-24T02:12:42.588Z,12.50
2023-03-24T02:15:11.430Z,12.52
2023-03-24T02:17:54.615Z,12.50
2023-03-24T02:21:07.663Z,12.57
2023-03-24T02:24:03.565Z,12.52
2023-03-24T02:26:57.117Z,12.47
2023-03-24T02:29:59.826Z,12.43
2023-03-24T02:33:04.947Z,12.38
2023-03-24T02:35:57.197Z,12.38
2023-03-24T02:39:00.469Z,12.38
2023-03-24T02:41:34.389Z,12.45
2023-03-24T02:44:08.050Z,12.18
2023-03-24T02:46:39.392Z,12.06
2023-03-24T02:49:15.174Z,12.05
2023-03-24T02:51:51.817Z,12.10
2023-03-24T02:54:23.947Z,12.16
2023-03-24T02:56:59.644Z,12.30
2023-03-24T02:59:34.661Z,12.30
2023-03-24T03:02:07.726Z,12.31
2023-03-24T03:04:40.391Z,12.16
2023-03-24T03:07:11.637Z,12.20
2023-03-24T03:09:42.671Z,12.21
2023-03-24T03:12:13.514Z,12.22
2023-03-24T03:14:45.792Z,12.14
2023-03-24T03:17:19.741Z,12.08
2023-03-24T03:19:52.547Z,12.12
2023-03-24T03:22:24.262Z,12.21
2023-03-24T03:24:55.377Z,12.10
2023-03-24T03:27:28.009Z,12.09
2023-03-24T03:30:00.182Z,12.09
2023-03-24T03:32:35.578Z,12.04
2023-03-24T03:35:11.028Z,12.11
2023-03-24T03:37:47.214Z,12.14
2023-03-24T03:40:21.493Z,12.20
2023-03-24T03:42:52.335Z,12.28
2023-03-24T03:45:22.357Z,12.29
2023-03-24T03:47:50.891Z,12.36
2023-03-24T03:50:18.784Z,12.33
2023-03-24T03:52:46.461Z,12.40
2023-03-24T03:55:14.919Z,12.38
2023-03-24T03:57:42.843Z,12.38
2023-03-24T04:00:16.650Z,12.36
2023-03-24T04:02:59.214Z,12.42
2023-03-24T04:05:31.973Z,12.47
2023-03-24T04:08:10.323Z,12.46
2023-03-24T04:11:01.784Z,12.47
2023-03-24T04:13:38.847Z,12.62
2023-03-24T04:16:13.179Z,12.64
2023-03-24T04:19:04.444Z,12.72
2023-03-24T04:21:48.794Z,12.94
2023-03-24T04:24:32.750Z,13.06
2023-03-24T04:27:10.226Z,13.19
2023-03-24T04:29:47.767Z,13.19
2023-03-24T04:32:25.020Z,13.29
2023-03-24T04:35:01.290Z,13.32
2023-03-24T04:37:33.340Z,13.38
2023-03-24T04:40:07.302Z,13.37
2023-03-24T04:42:38.335Z,13.37
2023-03-24T04:45:08.074Z,13.34
2023-03-24T04:47:45.428Z,13.27
2023-03-24T04:50:14.435Z,13.21
2023-03-24T04:52:43.698Z,13.26
2023-03-24T04:55:46.375Z,13.14
2023-03-24T04:58:14.130Z,13.09
2023-03-24T05:00:44.259Z,13.05
2023-03-24T05:03:14.480Z,12.99
2023-03-24T05:05:42.803Z,13.06
2023-03-24T05:08:11.512Z,12.91
2023-03-24T05:10:40.893Z,12.91
2023-03-24T05:13:09.073Z,12.90
2023-03-24T05:15:36.926Z,12.87
2023-03-24T05:18:05.636Z,12.94
2023-03-24T05:20:36.924Z,12.82
2023-03-24T05:23:04.741Z,12.70
2023-03-24T05:25:32.384Z,12.74
2023-03-24T05:28:00.525Z,12.67
2023-03-24T05:30:28.165Z,12.70
2023-03-24T05:32:56.054Z,12.72
2023-03-24T05:35:24.645Z,12.83
2023-03-24T05:37:54.631Z,12.86
2023-03-24T05:40:22.202Z,12.83
2023-03-24T05:42:50.876Z,12.92
2023-03-24T05:45:18.621Z,12.87
2023-03-24T05:47:47.553Z,13.01
2023-03-24T05:50:15.420Z,12.96
2023-03-24T05:52:43.016Z,12.96
2023-03-24T05:55:12.104Z,12.96
2023-03-24T05:57:39.673Z,12.99
2023-03-24T06:00:15.132Z,13.04
2023-03-24T06:02:44.297Z,13.08
2023-03-24T06:05:12.394Z,13.08
2023-03-24T06:07:42.326Z,13.20
2023-03-24T06:10:14.260Z,13.24
2023-03-24T06:12:42.262Z,13.22
2023-03-24T06:15:10.964Z,13.20
2023-03-24T06:17:38.652Z,13.31
2023-03-24T06:20:15.519Z,13.43
2023-03-24T06:22:45.097Z,13.46
2023-03-24T06:25:15.193Z,13.41
2023-03-24T06:27:46.183Z,13.48
2023-03-24T06:30:16.293Z,13.61
2023-03-24T06:32:47.674Z,13.80
2023-03-24T06:35:15.906Z,13.64
2023-03-24T06:37:44.688Z,13.68
2023-03-24T06:40:17.414Z,13.58
2023-03-24T06:42:46.918Z,13.56
2023-03-24T06:45:14.773Z,13.60
2023-03-24T06:47:42.525Z,13.71
2023-03-24T06:50:11.160Z,13.78
2023-03-24T06:52:38.765Z,13.71
2023-03-24T06:55:08.297Z,13.74
2023-03-24T06:57:38.891Z,13.64
2023-03-24T07:00:10.274Z,13.69
2023-03-24T07:02:38.383Z,13.82
2023-03-24T07:05:08.911Z,14.05
2023-03-24T07:10:08.538Z,14.61
2023-03-24T07:12:37.789Z,14.90
2023-03-24T07:15:10.325Z,14.95
2023-03-24T07:17:38.325Z,14.88
2023-03-24T07:20:08.452Z,14.69
2023-03-24T07:22:37.105Z,14.50
2023-03-24T07:25:07.007Z,14.53
2023-03-24T07:27:39.448Z,14.45
2023-03-24T07:30:29.982Z,14.41
2023-03-24T07:33:02.102Z,14.44
2023-03-24T07:35:35.301Z,14.36
2023-03-24T07:38:16.033Z,14.45
2023-03-24T07:40:46.750Z,14.39
2023-03-24T07:43:17.086Z,14.44
2023-03-24T07:45:46.353Z,14.59
2023-03-24T07:48:14.350Z,14.46
2023-03-24T07:50:44.282Z,14.39
2023-03-24T07:53:14.954Z,14.25
2023-03-24T07:55:43.162Z,14.07
2023-03-24T07:58:12.980Z,13.97
2023-03-24T08:00:43.482Z,14.03
2023-03-24T08:03:15.812Z,13.96
2023-03-24T08:09:23.506Z,13.80
2023-03-24T08:14:58.708Z,13.71
2023-03-24T08:17:27.747Z,13.59
2023-03-24T08:20:00.382Z,13.57
2023-03-24T08:22:31.429Z,13.52
2023-03-24T08:24:59.265Z,13.55
2023-03-24T08:27:27.074Z,13.59
2023-03-24T08:29:56.431Z,13.57
2023-03-24T08:32:24.444Z,13.52
2023-03-24T08:34:54.204Z,13.49
2023-03-24T08:37:21.885Z,13.44
2023-03-24T08:39:58.493Z,13.21
2023-03-24T08:42:27.752Z,13.25
2023-03-24T08:44:55.450Z,13.19
2023-03-24T08:47:23.441Z,13.29
2023-03-24T08:49:51.319Z,13.46
2023-03-24T08:52:20.244Z,13.53
2023-03-24T08:54:47.948Z,13.58
2023-03-24T08:57:18.097Z,13.36
2023-03-24T08:59:46.348Z,13.41
2023-03-24T09:02:14.611Z,13.43
2023-03-24T09:04:43.354Z,13.60
2023-03-24T09:07:11.465Z,13.60
2023-03-24T09:09:40.673Z,13.65
2023-03-24T09:12:12.168Z,13.49
2023-03-24T09:14:44.075Z,13.48
2023-03-24T09:17:11.799Z,13.47
2023-03-24T09:19:39.837Z,13.11
2023-03-24T09:22:08.265Z,13.15
2023-03-24T09:24:36.232Z,12.97
2023-03-24T09:27:07.579Z,12.83
2023-03-24T09:29:35.224Z,12.83
2023-03-24T09:32:02.994Z,12.71
2023-03-24T09:34:32.019Z,12.60
2023-03-24T09:37:02.240Z,12.55
2023-03-24T09:39:29.943Z,12.78
2023-03-24T09:41:57.770Z,12.91
2023-03-24T09:44:32.823Z,13.18
2023-03-24T09:47:05.760Z,13.31
2023-03-24T09:49:38.795Z,13.47
2023-03-24T09:52:08.098Z,13.62
2023-03-24T09:54:45.480Z,13.81
2023-03-24T09:57:21.331Z,13.84
2023-03-24T09:59:50.564Z,13.73
2023-03-24T10:02:23.198Z,13.73
2023-03-24T10:04:51.195Z,13.43
2023-03-24T10:07:28.153Z,13.32
2023-03-24T10:09:59.292Z,13.31
2023-03-24T10:12:35.995Z,13.21
2023-03-24T10:15:24.339Z,13.14
2023-03-24T10:18:07.126Z,13.12
2023-03-24T10:20:46.475Z,13.08
2023-03-24T10:23:31.682Z,13.04
2023-03-24T10:26:06.622Z,12.77
2023-03-24T10:28:54.809Z,12.78
2023-03-24T10:31:31.702Z,12.83
2023-03-24T10:34:00.555Z,12.63
2023-03-24T10:36:29.294Z,12.65
2023-03-24T10:39:09.561Z,12.74
2023-03-24T10:41:51.016Z,12.86
2023-03-24T10:44:19.764Z,13.32
2023-03-24T10:46:52.128Z,13.48
2023-03-24T10:49:25.469Z,14.12
2023-03-24T10:52:02.124Z,14.47
2023-03-24T10:54:33.395Z,14.88
2023-03-24T10:57:16.215Z,14.88
2023-03-24T10:59:54.568Z,15.10
2023-03-24T11:02:28.322Z,15.09
2023-03-24T11:04:58.230Z,14.96
2023-03-24T11:07:32.458Z,14.65
2023-03-24T11:10:05.385Z,14.56
2023-03-24T11:12:35.884Z,14.51
2023-03-24T11:15:22.905Z,14.31
2023-03-24T11:17:57.611Z,14.27
2023-03-24T11:20:33.501Z,14.24
2023-03-24T11:23:05.291Z,14.47
2023-03-24T11:25:36.009Z,14.83
2023-03-24T11:28:08.744Z,15.28
2023-03-24T11:30:47.092Z,15.38
2023-03-24T11:33:34.447Z,15.48
2023-03-24T11:36:30.167Z,15.54
2023-03-24T11:39:11.834Z,15.81
2023-03-24T11:41:58.428Z,15.98
2023-03-24T11:44:27.780Z,15.84
2023-03-24T11:47:01.260Z,16.14
2023-03-24T11:49:32.843Z,16.45
2023-03-24T11:52:05.083Z,16.31
2023-03-24T11:54:46.566Z,16.58
2023-03-24T11:57:24.281Z,16.48
2023-03-24T12:00:07.576Z,16.48
2023-03-24T12:02:55.001Z,16.37
2023-03-24T12:05:32.392Z,16.37
2023-03-24T12:08:14.914Z,16.67
2023-03-24T12:11:01.053Z,16.97
2023-03-24T12:13:35.782Z,16.83
2023-03-24T12:16:39.928Z,16.83
2023-03-24T12:19:36.515Z,16.87
2023-03-24T12:22:17.355Z,16.64
2023-03-24T12:25:25.474Z,16.47
2023-03-24T12:31:15.658Z,16.49
2023-03-24T12:34:18.982Z,16.80
2023-03-24T12:37:02.201Z,16.69
2023-03-24T12:39:55.687Z,16.66
2023-03-24T12:42:24.971Z,16.53
2023-03-24T12:45:21.394Z,16.63
2023-03-24T12:48:33.060Z,16.49
2023-03-24T12:51:14.345Z,16.53
2023-03-24T12:53:54.784Z,16.54
2023-03-24T13:00:16.351Z,16.64
2023-03-24T13:02:48.195Z,16.71
2023-03-24T13:05:29.547Z,17.02
2023-03-24T13:08:03.340Z,17.23
2023-03-24T13:10:41.254Z,16.94
2023-03-24T13:13:15.090Z,16.61
2023-03-24T13:15:48.622Z,16.56
2023-03-24T13:18:28.013Z,16.58
2023-03-24T13:21:01.293Z,16.67
2023-03-24T13:23:39.593Z,16.68
2023-03-24T13:26:19.018Z,16.54
2023-03-24T13:28:57.261Z,16.19
2023-03-24T13:31:30.608Z,16.57
2023-03-24T13:34:01.642Z,16.77
2023-03-24T13:39:30.716Z,17.17
2023-03-24T13:42:36.446Z,17.01
2023-03-24T13:45:09.794Z,16.98
2023-03-24T13:48:00.460Z,16.88
2023-03-24T13:50:29.646Z,16.86
2023-03-24T13:53:08.926Z,16.67
2023-03-24T13:55:43.090Z,16.81
2023-03-24T13:58:33.230Z,16.70
2023-03-24T14:01:26.976Z,16.81
2023-03-24T14:04:23.486Z,16.59
2023-03-24T14:06:55.092Z,16.84
2023-03-24T14:09:25.468Z,16.75
2023-03-24T14:12:18.083Z,16.71
2023-03-24T14:15:15.999Z,16.69
2023-03-24T14:17:46.035Z,16.65
2023-03-24T14:20:31.633Z,16.83
2023-03-24T14:23:04.953Z,16.83
2023-03-24T14:25:37.373Z,16.93
2023-03-24T14:28:19.077Z,16.98
2023-03-24T14:31:01.928Z,17.11
2023-03-24T14:33:32.001Z,16.92
2023-03-24T14:36:47.904Z,16.94
2023-03-24T14:39:30.095Z,17.09
2023-03-24T14:41:59.254Z,17.28
2023-03-24T14:44:56.160Z,17.22
2023-03-24T14:47:32.340Z,17.32
2023-03-24T14:50:08.970Z,17.26
2023-03-24T14:52:44.230Z,17.34
2023-03-24T14:55:20.730Z,17.43
2023-03-24T14:57:53.369Z,17.32
2023-03-24T15:06:13.478Z,16.70
2023-03-24T15:08:49.905Z,16.75
2023-03-24T15:11:20.825Z,16.87
2023-03-24T15:13:50.852Z,16.71
2023-03-24T15:16:23.670Z,16.61
2023-03-24T15:19:01.233Z,16.62
2023-03-24T15:21:35.199Z,16.57
2023-03-24T15:24:26.495Z,16.82
2023-03-24T15:26:56.215Z,16.77
2023-03-24T15:29:37.185Z,16.80
2023-03-24T15:32:10.987Z,16.70
2023-03-24T15:34:42.533Z,17.08
2023-03-24T15:37:23.163Z,17.23
2023-03-24T15:40:01.723Z,17.18
2023-03-24T15:42:50.677Z,17.08
2023-03-24T15:45:23.437Z,16.71
2023-03-24T15:47:57.835Z,16.52
2023-03-24T15:50:39.378Z,16.39
2023-03-24T15:53:25.669Z,16.33
2023-03-24T15:56:08.266Z,16.30
2023-03-24T15:58:54.691Z,16.32
2023-03-24T16:01:34.199Z,16.25
2023-03-24T16:04:17.067Z,16.29
2023-03-24T16:06:54.217Z,16.18
2023-03-24T16:09:27.714Z,16.13
2023-03-24T16:11:57.384Z,15.97
2023-03-24T16:14:27.115Z,15.89
2023-03-24T16:16:56.288Z,15.84
2023-03-24T16:19:24.498Z,15.79
2023-03-24T16:21:52.557Z,15.73
2023-03-24T16:24:21.104Z,15.68
2023-03-24T16:26:50.260Z,15.54
2023-03-24T16:29:21.612Z,15.55
2023-03-24T16:31:53.423Z,15.53
2023-03-24T16:34:23.102Z,15.40
2023-03-24T16:36:54.159Z,15.48
2023-03-24T16:39:24.965Z,15.44
2023-03-24T16:41:52.652Z,15.46
2023-03-24T16:44:26.928Z,15.50
2023-03-24T16:47:01.503Z,15.49
2023-03-24T16:49:29.188Z,15.53
2023-03-24T16:51:57.955Z,15.62
2023-03-24T16:54:25.680Z,15.65
2023-03-24T16:56:53.436Z,15.66
2023-03-24T16:59:22.673Z,15.71
2023-03-24T17:01:53.136Z,15.79
2023-03-24T17:04:23.603Z,15.71
2023-03-24T17:06:54.254Z,15.59
2023-03-24T17:09:22.738Z,15.44
2023-03-24T17:11:54.774Z,15.28
2023-03-24T17:14:24.134Z,15.19
2023-03-24T17:16:53.409Z,15.09
2023-03-24T17:19:23.286Z,14.96
2023-03-24T17:22:04.175Z,14.87
2023-03-24T17:24:36.593Z,14.79
2023-03-24T17:27:06.466Z,14.72
2023-03-24T17:29:36.846Z,14.59
2023-03-24T17:32:04.771Z,14.50
2023-03-24T17:34:32.446Z,14.48
2023-03-24T17:37:01.324Z,14.37
2023-03-24T17:39:29.129Z,14.33
2023-03-24T17:42:08.321Z,14.22
2023-03-24T17:44:37.366Z,14.13
2023-03-24T17:47:07.829Z,14.05
2023-03-24T17:49:35.392Z,14.07
2023-03-24T17:52:03.083Z,14.02
2023-03-24T17:54:30.952Z,14.09
2023-03-24T17:56:58.544Z,14.11
2023-03-24T17:59:26.494Z,13.99
2023-03-24T18:01:55.548Z,13.79
2023-03-24T18:04:25.682Z,13.72
2023-03-24T18:06:57.458Z,13.71
2023-03-24T18:09:25.363Z,13.74
2023-03-24T18:11:53.171Z,13.71
2023-03-24T18:14:20.832Z,13.75
2023-03-24T18:16:48.576Z,13.84
2023-03-24T18:19:17.826Z,13.69
2023-03-24T18:21:46.645Z,13.69
2023-03-24T18:24:15.015Z,13.66
2023-03-24T18:26:43.064Z,13.62
2023-03-24T18:29:11.347Z,13.55
2023-03-24T18:31:39.078Z,13.52
2023-03-24T18:34:06.959Z,13.47
2023-03-24T18:36:40.217Z,13.40
2023-03-24T18:39:12.869Z,13.45
2023-03-24T18:41:40.932Z,13.39
2023-03-24T18:44:11.015Z,13.32
2023-03-24T18:46:44.782Z,13.31
2023-03-24T18:49:14.104Z,13.23
2023-03-24T18:51:45.164Z,13.20
2023-03-24T18:54:14.740Z,13.20
2023-03-24T18:56:43.970Z,13.11
2023-03-24T18:59:12.612Z,13.14
2023-03-24T19:01:48.589Z,13.09
2023-03-24T19:04:16.822Z,13.04
2023-03-24T19:06:47.149Z,13.01
2023-03-24T19:09:20.076Z,12.90
2023-03-24T19:11:47.906Z,12.85
2023-03-24T19:14:15.612Z,12.85
2023-03-24T19:16:43.116Z,12.95
2023-03-24T19:19:10.893Z,12.95
2023-03-24T19:21:40.233Z,12.93
2023-03-24T19:24:09.823Z,12.89
2023-03-24T19:26:38.834Z,13.00
2023-03-24T19:29:09.799Z,13.00
2023-03-24T19:31:37.689Z,13.10
2023-03-24T19:34:05.726Z,13.10
2023-03-24T19:36:34.249Z,13.11
2023-03-24T19:39:03.007Z,13.11
2023-03-24T19:41:31.937Z,13.14
2023-03-24T19:43:59.551Z,13.12
2023-03-24T19:46:27.637Z,13.24
2023-03-24T19:48:55.472Z,13.29
2023-03-24T19:51:24.732Z,13.27
2023-03-24T19:53:54.737Z,13.28
2023-03-24T19:56:22.696Z,13.08
2023-03-24T19:58:51.909Z,12.91
2023-03-24T20:01:26.939Z,12.77
2023-03-24T20:06:53.195Z,12.51
2023-03-24T20:09:26.618Z,12.58
2023-03-24T20:14:49.996Z,12.67
2023-03-24T20:17:25.006Z,12.63
2023-03-24T20:20:15.847Z,12.65
2023-03-24T20:22:48.861Z,12.45
2023-03-24T20:25:23.358Z,12.35
2023-03-24T20:30:52.449Z,12.04
2023-03-24T20:33:23.585Z,12.09
2023-03-24T20:38:48.677Z,12.00
2023-03-24T20:41:33.197Z,11.97
2023-03-24T20:44:11.068Z,11.87
2023-03-24T20:46:49.272Z,11.82
2023-03-24T20:52:29.045Z,11.88
2023-03-24T20:55:13.303Z,11.81
2023-03-24T20:57:50.562Z,11.84
2023-03-24T21:00:22.044Z,11.85
2023-03-24T21:03:09.287Z,11.92
2023-03-24T21:05:59.836Z,11.81
2023-03-24T21:08:32.281Z,11.76
2023-03-24T21:11:05.116Z,11.72
2023-03-24T21:13:38.038Z,11.76
2023-03-24T21:16:09.034Z,11.72
2023-03-24T21:18:48.218Z,11.72
2023-03-24T21:21:17.090Z,11.80
2023-03-24T21:26:54.205Z,11.76
2023-03-24T21:29:23.600Z,11.78
2023-03-24T21:31:58.170Z,11.75
2023-03-24T21:34:44.697Z,11.72
2023-03-24T21:37:17.566Z,11.73
2023-03-24T21:39:49.672Z,11.73
2023-03-24T21:42:25.432Z,11.84
2023-03-24T21:45:00.816Z,11.78
2023-03-24T21:47:34.880Z,11.90
2023-03-24T21:50:11.674Z,11.89
2023-03-24T21:52:43.413Z,11.86
2023-03-24T21:55:18.252Z,11.90
2023-03-24T22:00:42.426Z,11.77
2023-03-24T22:03:12.580Z,11.73
2023-03-24T22:08:58.955Z,11.60
2023-03-24T22:11:33.551Z,11.59
2023-03-24T22:14:09.149Z,11.56
2023-03-24T22:16:44.487Z,11.58
2023-03-24T22:19:17.980Z,11.52
2023-03-24T22:25:16.284Z,11.51
2023-03-24T22:30:42.565Z,11.40
2023-03-24T22:33:31.693Z,11.22
2023-03-24T22:38:49.644Z,10.96
2023-03-24T22:41:19.381Z,10.71
2023-03-24T22:43:50.368Z,10.60
2023-03-24T22:46:22.326Z,10.55
2023-03-24T22:48:51.090Z,10.54
2023-03-24T22:51:21.708Z,10.48
2023-03-24T22:54:04.308Z,10.32
2023-03-24T22:56:32.574Z,10.32
2023-03-24T22:59:03.030Z,10.41
2023-03-24T23:04:14.990Z,10.64
2023-03-24T23:06:44.211Z,10.63
2023-03-24T23:09:18.465Z,10.65
2023-03-24T23:11:49.846Z,10.68
2023-03-24T23:14:20.508Z,10.50
2023-03-24T23:16:49.014Z,10.58
2023-03-24T23:19:16.724Z,10.62
2023-03-24T23:21:45.974Z,10.50
2023-03-24T23:24:13.478Z,10.53
2023-03-24T23:26:42.429Z,10.46
2023-03-24T23:29:10.179Z,10.47
2023-03-24T23:31:37.844Z,10.29
2023-03-24T23:34:07.556Z,10.24
2023-03-24T23:36:35.253Z,10.14
2023-03-24T23:39:03.350Z,10.18
2023-03-24T23:41:32.423Z,10.16
2023-03-24T23:44:01.542Z,10.11
2023-03-24T23:46:29.257Z,10.08
2023-03-24T23:48:57.103Z,10.09
2023-03-24T23:51:24.686Z,10.02
2023-03-24T23:53:52.224Z,10.11
2023-03-24T23:56:22.691Z,10.00
2023-03-24T23:58:52.177Z,10.01
